createdAt,value
2018-10-05T00:02:27.752Z,84.63
2018-10-05T00:04:58.189Z,84.72
2018-10-05T00:07:29.395Z,84.37
2018-10-05T00:09:58.920Z,85.23
2018-10-05T00:12:27.840Z,85.19
2018-10-05T00:14:56.917Z,85.25
2018-10-05T00:17:26.122Z,85.40
2018-10-05T00:19:55.515Z,84.81
2018-10-05T00:22:24.489Z,85.28
2018-10-05T00:24:55.047Z,85.00
2018-10-05T00:27:24.398Z,84.86
2018-10-05T00:29:53.754Z,85.47
2018-10-05T00:32:23.080Z,85.50
2018-10-05T00:34:52.981Z,85.39
2018-10-05T00:37:23.141Z,85.44
2018-10-05T00:39:53.538Z,84.94
2018-10-05T00:42:23.116Z,85.06
2018-10-05T00:44:52.155Z,85.49
2018-10-05T00:47:22.055Z,84.96
2018-10-05T00:49:52.190Z,84.66
2018-10-05T00:52:21.548Z,85.24
2018-10-05T00:54:50.419Z,84.85
2018-10-05T00:57:19.961Z,84.78
2018-10-05T00:59:50.692Z,84.86
2018-10-05T01:02:19.618Z,85.11
2018-10-05T01:04:49.296Z,85.47
2018-10-05T01:07:18.398Z,85.15
2018-10-05T01:09:48.614Z,85.61
2018-10-05T01:12:17.778Z,85.69
2018-10-05T01:14:47.525Z,85.03
2018-10-05T01:17:16.751Z,85.56
2018-10-05T01:19:45.956Z,85.60
2018-10-05T01:22:15.618Z,85.16
2018-10-05T01:24:46.178Z,85.55
2018-10-05T01:27:15.856Z,85.77
2018-10-05T01:29:45.422Z,85.34
2018-10-05T01:32:15.529Z,85.96
2018-10-05T01:34:45.755Z,85.56
2018-10-05T01:37:15.351Z,86.10
2018-10-05T01:39:45.471Z,85.66
2018-10-05T01:42:15.163Z,86.07
2018-10-05T01:44:44.978Z,85.35
2018-10-05T01:47:14.585Z,85.70
2018-10-05T01:49:43.930Z,85.44
2018-10-05T01:52:14.206Z,84.87
2018-10-05T01:54:43.005Z,85.46
2018-10-05T01:57:12.613Z,85.66
2018-10-05T01:59:42.262Z,85.03
2018-10-05T02:02:12.356Z,85.09
2018-10-05T02:04:42.595Z,85.82
2018-10-05T02:07:12.310Z,85.46
2018-10-05T02:09:41.460Z,86.05
2018-10-05T02:12:11.177Z,85.68
2018-10-05T02:14:41.742Z,86.05
2018-10-05T02:17:10.970Z,85.52
2018-10-05T02:19:40.772Z,86.08
2018-10-05T02:22:10.289Z,86.42
2018-10-05T02:24:40.459Z,86.18
2018-10-05T02:27:10.109Z,86.31
2018-10-05T02:29:39.508Z,86.36
2018-10-05T02:32:09.657Z,85.75
2018-10-05T02:34:39.518Z,85.35
2018-10-05T02:37:09.632Z,85.74
2018-10-05T02:39:38.802Z,85.42
2018-10-05T02:42:07.717Z,85.64
2018-10-05T02:44:37.146Z,85.74
2018-10-05T02:47:06.474Z,85.72
2018-10-05T02:49:35.501Z,85.54
2018-10-05T02:52:05.900Z,85.88
2018-10-05T02:54:34.940Z,85.82
2018-10-05T02:57:05.041Z,85.06
2018-10-05T02:59:34.947Z,85.68
2018-10-05T03:02:15.416Z,85.48
2018-10-05T03:04:45.156Z,85.49
2018-10-05T03:07:14.153Z,85.24
2018-10-05T03:09:43.317Z,85.36
2018-10-05T03:12:13.619Z,85.00
2018-10-05T03:14:43.735Z,84.75
2018-10-05T03:17:13.741Z,85.10
2018-10-05T03:19:43.846Z,84.72
2018-10-05T03:22:13.023Z,85.05
2018-10-05T03:24:42.585Z,84.14
2018-10-05T03:27:13.101Z,84.49
2018-10-05T03:29:43.003Z,84.26
2018-10-05T03:32:12.608Z,84.66
2018-10-05T03:34:43.552Z,83.94
2018-10-05T03:37:13.233Z,83.37
2018-10-05T03:39:42.301Z,83.82
2018-10-05T03:42:12.164Z,83.17
2018-10-05T03:44:43.521Z,83.52
2018-10-05T03:47:12.950Z,83.27
2018-10-05T03:49:42.675Z,83.48
2018-10-05T03:52:12.821Z,83.90
2018-10-05T03:54:42.273Z,84.24
2018-10-05T03:57:11.419Z,83.85
2018-10-05T03:59:40.767Z,83.91
2018-10-05T04:02:09.992Z,83.35
2018-10-05T04:04:39.763Z,83.46
2018-10-05T04:07:09.173Z,83.13
2018-10-05T04:09:38.636Z,83.36
2018-10-05T04:12:08.393Z,82.72
2018-10-05T04:14:37.997Z,82.94
2018-10-05T04:17:07.244Z,82.12
2018-10-05T04:19:36.819Z,82.00
2018-10-05T04:22:06.248Z,82.25
2018-10-05T04:24:36.968Z,82.52
2018-10-05T04:27:06.411Z,82.64
2018-10-05T04:29:36.118Z,81.89
2018-10-05T04:32:05.825Z,81.53
2018-10-05T04:34:36.986Z,81.88
2018-10-05T04:37:05.979Z,80.94
2018-10-05T04:39:35.145Z,81.74
2018-10-05T04:42:05.672Z,81.77
2018-10-05T04:44:35.063Z,82.43
2018-10-05T04:47:05.427Z,80.99
2018-10-05T04:49:36.549Z,80.17
2018-10-05T04:52:06.186Z,80.66
2018-10-05T04:54:35.542Z,81.15
2018-10-05T04:57:04.283Z,81.01
2018-10-05T04:59:33.669Z,80.54
2018-10-05T05:02:04.122Z,80.28
2018-10-05T05:04:33.397Z,79.93
2018-10-05T05:07:02.595Z,79.93
2018-10-05T05:09:33.453Z,80.47
2018-10-05T05:12:05.146Z,79.83
2018-10-05T05:14:34.056Z,79.38
2018-10-05T05:17:03.032Z,80.11
2018-10-05T05:19:32.452Z,80.12
2018-10-05T05:22:02.590Z,80.10
2018-10-05T05:24:33.083Z,80.20
2018-10-05T05:27:01.903Z,80.21
2018-10-05T05:29:31.276Z,79.83
2018-10-05T05:32:00.729Z,79.39
2018-10-05T05:34:31.921Z,79.93
2018-10-05T05:37:02.070Z,80.01
2018-10-05T05:39:31.497Z,80.18
2018-10-05T05:42:01.113Z,80.06
2018-10-05T05:44:32.631Z,80.41
2018-10-05T05:47:03.191Z,79.69
2018-10-05T05:49:33.183Z,79.58
2018-10-05T05:52:03.091Z,79.79
2018-10-05T05:54:33.588Z,79.51
2018-10-05T05:57:03.471Z,79.91
2018-10-05T05:59:33.373Z,79.43
2018-10-05T06:02:38.859Z,80.15
2018-10-05T06:05:07.937Z,79.68
2018-10-05T06:07:37.141Z,80.27
2018-10-05T06:10:07.665Z,80.35
2018-10-05T06:12:37.863Z,79.97
2018-10-05T06:15:08.509Z,79.94
2018-10-05T06:17:38.716Z,80.21
2018-10-05T06:20:08.198Z,79.46
2018-10-05T06:22:37.791Z,79.34
2018-10-05T06:25:07.574Z,79.42
2018-10-05T06:27:36.600Z,80.04
2018-10-05T06:30:05.863Z,79.55
2018-10-05T06:32:35.677Z,79.39
2018-10-05T06:35:06.132Z,80.30
2018-10-05T06:37:35.919Z,79.81
2018-10-05T06:40:05.612Z,79.74
2018-10-05T06:42:35.841Z,79.04
2018-10-05T06:45:06.381Z,79.14
2018-10-05T06:47:38.946Z,79.35
2018-10-05T06:50:08.207Z,78.52
2018-10-05T06:52:37.892Z,78.69
2018-10-05T06:55:08.444Z,79.20
2018-10-05T06:57:38.256Z,78.17
2018-10-05T07:00:08.225Z,77.98
2018-10-05T07:02:37.350Z,77.19
2018-10-05T07:05:06.605Z,77.58
2018-10-05T07:07:35.927Z,76.36
2018-10-05T07:10:05.206Z,76.03
2018-10-05T07:12:39.012Z,75.46
2018-10-05T07:15:08.666Z,74.92
2018-10-05T07:17:37.706Z,73.77
2018-10-05T07:20:07.105Z,74.01
2018-10-05T07:22:36.986Z,72.28
2018-10-05T07:25:06.010Z,72.22
2018-10-05T07:27:35.121Z,71.74
2018-10-05T07:30:09.676Z,71.85
2018-10-05T07:32:40.119Z,71.93
2018-10-05T07:35:09.242Z,70.47
2018-10-05T07:37:38.880Z,70.70
2018-10-05T07:40:09.413Z,70.98
2018-10-05T07:42:40.373Z,68.20
2018-10-05T07:45:10.679Z,68.75
2018-10-05T07:47:41.006Z,66.93
2018-10-05T07:50:10.929Z,66.24
2018-10-05T07:52:42.431Z,66.41
2018-10-05T07:55:11.986Z,66.81
2018-10-05T07:57:41.554Z,67.62
2018-10-05T08:00:11.285Z,65.91
2018-10-05T08:02:50.735Z,65.85
2018-10-05T08:05:19.983Z,65.17
2018-10-05T08:07:49.555Z,65.57
2018-10-05T08:10:19.726Z,64.75
2018-10-05T08:12:48.741Z,65.19
2018-10-05T08:15:17.761Z,64.40
2018-10-05T08:17:46.562Z,63.98
2018-10-05T08:20:15.656Z,63.67
2018-10-05T08:22:44.621Z,62.84
2018-10-05T08:25:13.390Z,64.62
2018-10-05T08:27:42.393Z,63.20
2018-10-05T08:30:11.488Z,62.63
2018-10-05T08:32:40.749Z,62.48
2018-10-05T08:35:10.136Z,62.18
2018-10-05T08:37:39.058Z,61.81
2018-10-05T08:40:09.008Z,63.25
2018-10-05T08:42:38.542Z,61.61
2018-10-05T08:45:07.565Z,61.87
2018-10-05T08:47:36.417Z,60.21
2018-10-05T08:50:05.346Z,59.80
2018-10-05T08:52:34.503Z,59.19
2018-10-05T08:55:03.625Z,60.55
2018-10-05T08:57:32.942Z,60.30
2018-10-05T09:00:01.812Z,58.18
2018-10-05T09:02:30.868Z,58.58
2018-10-05T09:04:59.736Z,57.67
2018-10-05T09:07:28.867Z,57.09
2018-10-05T09:09:57.946Z,58.24
2018-10-05T09:12:26.940Z,58.60
2018-10-05T09:14:55.993Z,56.75
2018-10-05T09:17:25.202Z,56.73
2018-10-05T09:19:54.180Z,56.38
2018-10-05T09:22:23.281Z,56.43
2018-10-05T09:24:52.689Z,56.10
2018-10-05T09:27:21.505Z,56.39
2018-10-05T09:29:50.466Z,55.37
2018-10-05T09:32:19.661Z,55.53
2018-10-05T09:34:48.653Z,54.10
2018-10-05T09:37:19.801Z,53.68
2018-10-05T09:39:48.640Z,53.89
2018-10-05T09:42:17.560Z,52.35
2018-10-05T09:44:46.766Z,52.24
2018-10-05T09:47:18.376Z,52.56
2018-10-05T09:49:48.357Z,51.67
2018-10-05T09:52:17.425Z,51.81
2018-10-05T09:54:46.456Z,50.75
2018-10-05T09:57:15.591Z,49.63
2018-10-05T09:59:44.539Z,49.42
2018-10-05T10:02:14.969Z,50.25
2018-10-05T10:04:43.743Z,51.62
2018-10-05T10:07:12.613Z,51.49
2018-10-05T10:09:41.440Z,52.88
2018-10-05T10:12:10.392Z,50.93
2018-10-05T10:14:39.352Z,50.88
2018-10-05T10:17:08.492Z,50.90
2018-10-05T10:19:37.478Z,51.39
2018-10-05T10:22:06.573Z,50.70
2018-10-05T10:24:35.350Z,49.72
2018-10-05T10:27:04.456Z,49.43
2018-10-05T10:29:33.607Z,49.37
2018-10-05T10:32:03.653Z,49.57
2018-10-05T10:34:32.625Z,49.59
2018-10-05T10:37:01.937Z,50.47
2018-10-05T10:39:31.112Z,50.13
2018-10-05T10:42:00.262Z,50.81
2018-10-05T10:44:29.044Z,50.59
2018-10-05T10:46:58.018Z,50.72
2018-10-05T10:49:27.128Z,51.60
2018-10-05T10:51:56.042Z,50.92
2018-10-05T10:54:24.894Z,51.96
2018-10-05T10:56:53.903Z,51.20
2018-10-05T10:59:23.853Z,50.69
2018-10-05T11:01:52.830Z,50.94
2018-10-05T11:04:21.750Z,49.97
2018-10-05T11:06:50.953Z,50.75
2018-10-05T11:09:19.766Z,50.02
2018-10-05T11:11:48.493Z,50.41
2018-10-05T11:14:17.215Z,51.36
2018-10-05T11:16:48.267Z,49.09
2018-10-05T11:19:18.240Z,48.53
2018-10-05T11:21:47.608Z,47.82
2018-10-05T11:24:16.394Z,46.87
2018-10-05T11:26:45.278Z,47.51
2018-10-05T11:29:14.068Z,48.17
2018-10-05T11:31:42.834Z,48.59
2018-10-05T11:34:12.753Z,48.25
2018-10-05T11:36:42.088Z,46.76
2018-10-05T11:39:11.181Z,47.83
2018-10-05T11:41:41.256Z,47.33
2018-10-05T11:44:10.025Z,47.20
2018-10-05T11:46:38.936Z,44.26
2018-10-05T11:49:07.836Z,44.00
2018-10-05T11:51:36.754Z,43.71
2018-10-05T11:54:05.547Z,43.39
2018-10-05T11:56:34.951Z,44.35
2018-10-05T11:59:03.893Z,44.61
2018-10-05T12:01:32.727Z,43.83
2018-10-05T12:04:01.970Z,44.20
2018-10-05T12:06:30.724Z,43.86
2018-10-05T12:08:59.508Z,42.60
2018-10-05T12:11:28.493Z,40.87
2018-10-05T12:13:57.327Z,39.22
2018-10-05T12:16:26.216Z,37.91
2018-10-05T12:18:55.562Z,38.24
2018-10-05T12:21:24.658Z,39.80
2018-10-05T12:23:53.772Z,40.62
2018-10-05T12:26:22.692Z,42.47
2018-10-05T12:28:52.102Z,43.66
2018-10-05T12:31:20.953Z,43.21
2018-10-05T12:33:50.898Z,43.31
2018-10-05T12:36:19.731Z,43.63
2018-10-05T12:38:48.464Z,43.30
2018-10-05T12:41:17.215Z,43.86
2018-10-05T12:43:46.024Z,45.16
2018-10-05T12:46:14.794Z,44.75
2018-10-05T12:48:43.873Z,45.79
2018-10-05T12:51:13.033Z,44.98
2018-10-05T12:53:42.430Z,45.13
2018-10-05T12:56:11.306Z,45.01
2018-10-05T12:58:40.865Z,45.62
2018-10-05T13:01:09.716Z,45.21
2018-10-05T13:03:38.936Z,44.31
2018-10-05T13:06:08.144Z,44.29
2018-10-05T13:08:36.971Z,44.91
2018-10-05T13:11:05.697Z,45.83
2018-10-05T13:13:34.595Z,45.30
2018-10-05T13:16:03.562Z,45.67
2018-10-05T13:18:32.327Z,45.29
2018-10-05T13:21:01.141Z,45.06
2018-10-05T13:23:29.863Z,45.00
2018-10-05T13:25:58.855Z,45.09
2018-10-05T13:28:27.685Z,45.62
2018-10-05T13:30:56.487Z,45.19
2018-10-05T13:33:25.277Z,45.41
2018-10-05T13:35:54.373Z,45.21
2018-10-05T13:38:23.678Z,44.84
2018-10-05T13:40:52.721Z,44.82
2018-10-05T13:43:21.811Z,45.31
2018-10-05T13:45:50.709Z,45.08
2018-10-05T13:48:19.542Z,45.08
2018-10-05T13:50:50.029Z,45.44
2018-10-05T13:53:19.473Z,45.53
2018-10-05T13:55:48.904Z,45.39
2018-10-05T13:58:18.043Z,45.16
2018-10-05T14:00:47.185Z,46.02
2018-10-05T14:03:15.929Z,45.97
2018-10-05T14:05:45.623Z,46.20
2018-10-05T14:08:14.312Z,45.54
2018-10-05T14:10:43.505Z,46.89
2018-10-05T14:13:12.566Z,46.87
2018-10-05T14:15:41.925Z,46.35
2018-10-05T14:18:10.682Z,46.13
2018-10-05T14:20:39.445Z,45.03
2018-10-05T14:23:08.214Z,45.24
2018-10-05T14:25:37.076Z,45.57
2018-10-05T14:28:06.155Z,45.04
2018-10-05T14:30:36.452Z,45.31
2018-10-05T14:33:06.349Z,45.70
2018-10-05T14:35:36.953Z,45.09
2018-10-05T14:38:06.200Z,45.90
2018-10-05T14:40:35.375Z,45.43
2018-10-05T14:43:05.305Z,45.87
2018-10-05T14:45:34.896Z,45.84
2018-10-05T14:48:03.635Z,45.92
2018-10-05T14:50:33.444Z,45.84
2018-10-05T14:53:02.878Z,46.00
2018-10-05T14:55:31.682Z,46.42
2018-10-05T14:58:00.742Z,46.04
2018-10-05T15:00:29.778Z,45.57
2018-10-05T15:02:58.819Z,46.31
2018-10-05T15:05:27.758Z,45.82
2018-10-05T15:07:56.732Z,47.61
2018-10-05T15:10:25.873Z,47.42
2018-10-05T15:12:55.765Z,47.14
2018-10-05T15:15:24.930Z,47.21
2018-10-05T15:17:53.815Z,46.41
2018-10-05T15:20:22.921Z,47.05
2018-10-05T15:22:53.146Z,46.68
2018-10-05T15:25:21.958Z,46.72
2018-10-05T15:27:51.714Z,46.95
2018-10-05T15:30:22.242Z,46.64
2018-10-05T15:32:51.495Z,46.66
2018-10-05T15:35:21.703Z,47.32
2018-10-05T15:37:50.674Z,47.84
2018-10-05T15:40:20.358Z,47.54
2018-10-05T15:42:49.497Z,48.77
2018-10-05T15:45:18.849Z,48.22
2018-10-05T15:47:47.974Z,47.94
2018-10-05T15:50:16.890Z,47.91
2018-10-05T15:52:47.867Z,47.96
2018-10-05T15:55:18.093Z,49.11
2018-10-05T15:57:47.578Z,48.88
2018-10-05T16:00:16.854Z,48.79
2018-10-05T16:02:47.212Z,48.99
2018-10-05T16:05:16.697Z,49.57
2018-10-05T16:07:45.457Z,49.72
2018-10-05T16:10:14.295Z,49.01
2018-10-05T16:12:43.446Z,49.72
2018-10-05T16:15:12.209Z,50.38
2018-10-05T16:17:41.226Z,49.50
2018-10-05T16:20:10.568Z,50.66
2018-10-05T16:22:42.138Z,50.27
2018-10-05T16:25:12.863Z,51.06
2018-10-05T16:27:41.970Z,51.17
2018-10-05T16:30:11.059Z,50.59
2018-10-05T16:32:41.183Z,51.77
2018-10-05T16:35:11.093Z,52.01
2018-10-05T16:37:41.456Z,52.16
2018-10-05T16:40:10.862Z,52.11
2018-10-05T16:42:42.488Z,52.06
2018-10-05T16:45:11.550Z,51.98
2018-10-05T16:47:42.212Z,52.33
2018-10-05T16:50:11.528Z,52.75
2018-10-05T16:52:41.846Z,53.21
2018-10-05T16:55:11.231Z,54.36
2018-10-05T16:57:42.020Z,54.19
2018-10-05T17:00:12.700Z,54.60
2018-10-05T17:02:42.217Z,54.77
2018-10-05T17:05:11.829Z,55.19
2018-10-05T17:07:41.599Z,54.95
2018-10-05T17:10:12.197Z,55.68
2018-10-05T17:12:41.266Z,55.80
2018-10-05T17:15:10.803Z,54.79
2018-10-05T17:17:39.674Z,54.34
2018-10-05T17:20:08.878Z,54.47
2018-10-05T17:22:38.086Z,53.87
2018-10-05T17:25:09.101Z,54.11
2018-10-05T17:27:38.255Z,54.27
2018-10-05T17:30:07.207Z,53.99
2018-10-05T17:32:38.073Z,53.50
2018-10-05T17:35:07.783Z,54.41
2018-10-05T17:37:37.754Z,55.00
2018-10-05T17:40:08.677Z,55.23
2018-10-05T17:42:38.252Z,55.71
2018-10-05T17:45:07.520Z,55.52
2018-10-05T17:47:36.740Z,55.12
2018-10-05T17:50:08.299Z,55.76
2018-10-05T17:52:39.025Z,55.53
2018-10-05T17:55:08.432Z,55.84
2018-10-05T17:57:37.553Z,56.19
2018-10-05T18:00:06.443Z,56.40
2018-10-05T18:02:36.085Z,56.88
2018-10-05T18:05:06.110Z,56.22
2018-10-05T18:07:35.265Z,55.80
2018-10-05T18:10:04.896Z,56.06
2018-10-05T18:12:33.987Z,55.59
2018-10-05T18:15:03.844Z,55.72
2018-10-05T18:17:33.573Z,55.71
2018-10-05T18:20:04.058Z,56.05
2018-10-05T18:22:33.486Z,56.53
2018-10-05T18:25:02.978Z,56.55
2018-10-05T18:27:32.050Z,57.01
2018-10-05T18:30:01.035Z,56.95
2018-10-05T18:32:30.506Z,56.33
2018-10-05T18:34:59.611Z,56.47
2018-10-05T18:37:28.885Z,56.52
2018-10-05T18:39:58.207Z,56.13
2018-10-05T18:42:27.536Z,56.82
2018-10-05T18:44:56.330Z,56.50
2018-10-05T18:47:25.166Z,57.01
2018-10-05T18:49:54.383Z,56.95
2018-10-05T18:52:23.124Z,56.48
2018-10-05T18:54:52.551Z,56.61
2018-10-05T18:57:23.425Z,56.27
2018-10-05T18:59:52.246Z,57.30
2018-10-05T19:02:21.438Z,56.99
2018-10-05T19:04:50.594Z,57.41
2018-10-05T19:07:20.290Z,57.22
2018-10-05T19:09:49.696Z,57.72
2018-10-05T19:12:18.500Z,57.59
2018-10-05T19:14:47.426Z,56.89
2018-10-05T19:17:16.242Z,57.15
2018-10-05T19:19:45.615Z,56.53
2018-10-05T19:22:15.092Z,56.99
2018-10-05T19:24:44.096Z,57.16
2018-10-05T19:27:12.810Z,56.61
2018-10-05T19:29:41.679Z,57.06
2018-10-05T19:32:12.248Z,57.02
2018-10-05T19:34:41.023Z,57.17
2018-10-05T19:37:10.578Z,56.66
2018-10-05T19:39:39.951Z,57.24
2018-10-05T19:42:10.331Z,56.90
2018-10-05T19:44:39.605Z,56.95
2018-10-05T19:47:09.691Z,57.32
2018-10-05T19:49:38.678Z,56.98
2018-10-05T19:52:07.481Z,57.62
2018-10-05T19:54:38.488Z,57.89
2018-10-05T19:57:08.409Z,58.00
2018-10-05T19:59:44.714Z,57.55
2018-10-05T20:02:22.312Z,57.59
2018-10-05T20:04:51.186Z,58.26
2018-10-05T20:07:30.909Z,58.03
2018-10-05T20:10:01.445Z,58.54
2018-10-05T20:12:31.295Z,58.73
2018-10-05T20:15:00.781Z,58.68
2018-10-05T20:17:29.642Z,58.85
2018-10-05T20:19:58.618Z,58.37
2018-10-05T20:22:28.265Z,58.78
2018-10-05T20:24:57.055Z,58.79
2018-10-05T20:27:26.143Z,59.18
2018-10-05T20:29:55.230Z,59.24
2018-10-05T20:32:24.187Z,59.31
2018-10-05T20:34:53.313Z,58.73
2018-10-05T20:37:22.632Z,58.84
2018-10-05T20:39:51.502Z,59.08
2018-10-05T20:42:20.742Z,58.94
2018-10-05T20:44:51.731Z,59.21
2018-10-05T20:47:20.981Z,59.37
2018-10-05T20:49:51.576Z,59.12
2018-10-05T20:52:21.671Z,59.77
2018-10-05T20:54:51.099Z,59.50
2018-10-05T20:57:20.506Z,59.42
2018-10-05T20:59:49.599Z,59.45
2018-10-05T21:02:18.824Z,59.89
2018-10-05T21:04:48.171Z,60.21
2018-10-05T21:07:17.507Z,59.58
2018-10-05T21:09:46.673Z,60.26
2018-10-05T21:12:15.449Z,60.42
2018-10-05T21:14:44.583Z,60.47
2018-10-05T21:17:13.497Z,60.54
2018-10-05T21:19:42.537Z,60.27
2018-10-05T21:22:12.043Z,60.83
2018-10-05T21:24:41.679Z,60.83
2018-10-05T21:27:11.879Z,60.34
2018-10-05T21:29:41.416Z,60.73
2018-10-05T21:32:10.549Z,61.12
2018-10-05T21:34:39.349Z,61.10
2018-10-05T21:37:08.161Z,61.34
2018-10-05T21:39:36.920Z,61.37
2018-10-05T21:42:05.785Z,60.82
2018-10-05T21:44:34.598Z,61.19
2018-10-05T21:47:03.722Z,60.93
2018-10-05T21:49:32.540Z,61.46
2018-10-05T21:52:01.539Z,61.29
2018-10-05T21:54:30.539Z,61.36
2018-10-05T21:56:59.313Z,61.47
2018-10-05T21:59:28.998Z,61.47
2018-10-05T22:01:58.169Z,62.20
2018-10-05T22:04:27.853Z,61.98
2018-10-05T22:06:56.670Z,61.96
2018-10-05T22:09:25.643Z,61.75
2018-10-05T22:11:54.956Z,62.38
2018-10-05T22:14:23.849Z,62.26
2018-10-05T22:16:53.105Z,62.16
2018-10-05T22:19:21.955Z,62.82
2018-10-05T22:21:50.678Z,62.43
2018-10-05T22:24:19.483Z,62.66
2018-10-05T22:26:48.663Z,62.34
2018-10-05T22:29:17.554Z,63.00
2018-10-05T22:31:46.384Z,62.16
2018-10-05T22:34:15.781Z,62.03
2018-10-05T22:36:44.591Z,62.53
2018-10-05T22:39:13.680Z,62.60
2018-10-05T22:41:42.409Z,63.11
2018-10-05T22:44:11.427Z,62.59
2018-10-05T22:46:40.155Z,62.97
2018-10-05T22:49:08.895Z,62.75
2018-10-05T22:51:38.862Z,63.32
2018-10-05T22:54:07.648Z,63.12
2018-10-05T22:56:36.462Z,62.77
2018-10-05T22:59:05.618Z,63.13
2018-10-05T23:01:34.539Z,63.56
2018-10-05T23:04:03.422Z,63.38
2018-10-05T23:06:32.184Z,63.11
2018-10-05T23:09:00.934Z,63.19
2018-10-05T23:11:29.758Z,63.00
2018-10-05T23:14:05.136Z,62.89
2018-10-05T23:16:34.917Z,62.80
2018-10-05T23:19:05.539Z,63.27
2018-10-05T23:21:34.521Z,62.68
2018-10-05T23:24:03.219Z,63.29
2018-10-05T23:26:31.979Z,63.01
2018-10-05T23:29:00.791Z,63.44
2018-10-05T23:31:29.497Z,62.95
2018-10-05T23:33:58.252Z,63.45
2018-10-05T23:36:27.110Z,62.98
2018-10-05T23:38:56.195Z,63.33
2018-10-05T23:41:25.105Z,62.78
2018-10-05T23:43:53.942Z,63.51
2018-10-05T23:46:23.048Z,63.80
2018-10-05T23:48:52.163Z,63.73
2018-10-05T23:51:20.875Z,63.99
2018-10-05T23:53:49.684Z,63.94
2018-10-05T23:56:18.421Z,63.53
2018-10-05T23:58:47.349Z,64.01
